Time;durP1;ratioP1;P1;durP2;ratioP2;P2;SDS_P1;SDS_P2;PMS_P1;PMS_P2;Temp;Humidity;BMP_temperature;BMP_pressure;BME280_temperature;BME280_humidity;BME280_pressure;Samples;Min_cycle;Max_cycle;Signal;HPM_P1;HPM_P2
2022/04/29 00:00:46;;;;;;;12.67;11.33;;;8.80;87.00;;;;;;5077097;28;20491;-79
2022/04/29 00:03:15;;;;;;;13.17;9.97;;;8.80;86.90;;;;;;5065466;28;20484;-76
2022/04/29 00:05:44;;;;;;;9.37;8.47;;;8.80;86.90;;;;;;5070182;28;20488;-76
2022/04/29 00:08:11;;;;;;;10.20;8.30;;;8.90;86.90;;;;;;5062441;28;20570;-77
2022/04/29 00:10:39;;;;;;;9.50;8.30;;;8.80;86.60;;;;;;5083079;28;20471;-79
2022/04/29 00:13:09;;;;;;;10.30;9.30;;;8.90;86.00;;;;;;5068683;28;20480;-77
2022/04/29 00:15:37;;;;;;;13.47;8.97;;;8.80;86.60;;;;;;5075289;28;20836;-78
2022/04/29 00:18:05;;;;;;;10.17;9.07;;;8.70;86.80;;;;;;5068775;28;20473;-78
2022/04/29 00:20:32;;;;;;;10.63;9.50;;;8.70;86.60;;;;;;5081266;28;20479;-80
2022/04/29 00:22:59;;;;;;;11.33;10.17;;;8.70;86.50;;;;;;5070743;28;21004;-79
2022/04/29 00:25:26;;;;;;;12.20;9.37;;;8.70;86.10;;;;;;5072168;28;20478;-77
2022/04/29 00:27:53;;;;;;;11.53;8.80;;;8.70;86.80;;;;;;5068749;28;20561;-81
2022/04/29 00:30:22;;;;;;;10.30;9.23;;;8.70;86.60;;;;;;5080948;28;20498;-76
2022/04/29 00:32:49;;;;;;;9.13;8.20;;;8.60;86.30;;;;;;5077258;28;20493;-77
2022/04/29 00:35:17;;;;;;;9.83;8.70;;;8.60;86.50;;;;;;5077176;28;20473;-77
2022/04/29 00:37:45;;;;;;;20.30;9.97;;;8.50;86.30;;;;;;5064900;28;20831;-76
2022/04/29 00:40:15;;;;;;;13.30;9.43;;;8.50;86.80;;;;;;5080908;28;20488;-79
2022/04/29 00:42:43;;;;;;;10.27;8.93;;;8.30;88.20;;;;;;5069226;28;20534;-76
2022/04/29 00:45:11;;;;;;;10.53;9.07;;;8.10;89.60;;;;;;5078759;28;20588;-79
2022/04/29 00:47:39;;;;;;;11.37;10.20;;;8.10;89.20;;;;;;5068183;28;20843;-77
2022/04/29 00:50:08;;;;;;;10.27;9.27;;;8.10;88.60;;;;;;5068918;28;20483;-76
2022/04/29 00:52:42;;;;;;;11.67;9.43;;;8.20;88.50;;;;;;5060097;28;20504;-76
2022/04/29 00:55:11;;;;;;;12.77;10.53;;;8.10;89.50;;;;;;5067699;28;20564;-80
2022/04/29 00:57:42;;;;;;;13.20;11.10;;;8.00;90.90;;;;;;5078555;28;20493;-79
2022/04/29 01:00:14;;;;;;;12.40;9.07;;;8.00;90.90;;;;;;5076648;28;20475;-80
2022/04/29 01:02:44;;;;;;;13.73;8.73;;;8.10;90.20;;;;;;5069707;28;20505;-76
2022/04/29 01:05:12;;;;;;;9.13;8.33;;;8.10;89.20;;;;;;5076614;28;21030;-79
2022/04/29 01:07:42;;;;;;;12.13;8.30;;;8.10;88.20;;;;;;5071064;28;20478;-79
2022/04/29 01:10:12;;;;;;;10.93;9.10;;;8.20;87.70;;;;;;5073047;28;20482;-79
2022/04/29 01:12:41;;;;;;;13.43;9.13;;;8.20;87.80;;;;;;5076057;28;20582;-78
2022/04/29 01:15:12;;;;;;;11.33;8.87;;;8.20;88.30;;;;;;5069994;28;20479;-76
2022/04/29 01:17:40;;;;;;;12.57;9.90;;;8.20;88.40;;;;;;5071353;28;20493;-75
2022/04/29 01:20:09;;;;;;;13.30;8.90;;;8.20;87.90;;;;;;5072593;28;20488;-80
2022/04/29 01:22:37;;;;;;;11.10;9.30;;;8.20;87.80;;;;;;5078458;28;21165;-78
2022/04/29 01:25:05;;;;;;;10.50;9.07;;;8.20;87.60;;;;;;5073259;28;20478;-77
2022/04/29 01:27:33;;;;;;;9.60;8.57;;;8.20;87.20;;;;;;5076318;28;20464;-78
2022/04/29 01:30:03;;;;;;;11.20;8.00;;;8.30;87.60;;;;;;5074909;28;20472;-77
2022/04/29 01:32:32;;;;;;;10.57;9.10;;;8.20;87.20;;;;;;5082096;28;20483;-77
2022/04/29 01:34:59;;;;;;;11.90;8.50;;;8.10;87.20;;;;;;5074885;28;21166;-79
2022/04/29 01:37:26;;;;;;;8.87;8.00;;;8.10;86.60;;;;;;5071968;28;20491;-76
2022/04/29 01:39:54;;;;;;;10.30;9.10;;;8.00;87.50;;;;;;5078513;28;20470;-76
2022/04/29 01:42:21;;;;;;;8.23;7.43;;;8.00;87.40;;;;;;5078288;28;20485;-77
2022/04/29 01:44:48;;;;;;;9.47;8.50;;;8.00;87.70;;;;;;5076115;28;20494;-80
2022/04/29 01:47:14;;;;;;;10.53;9.40;;;7.90;87.60;;;;;;5077062;28;20490;-78
2022/04/29 01:49:41;;;;;;;11.07;9.97;;;7.80;87.70;;;;;;5076943;28;20497;-77
2022/04/29 01:52:09;;;;;;;8.63;7.70;;;7.80;87.40;;;;;;5079211;28;20481;-79
2022/04/29 01:54:36;;;;;;;11.77;9.47;;;7.70;88.30;;;;;;5076787;28;20586;-76
2022/04/29 01:57:05;;;;;;;11.30;9.47;;;7.70;87.70;;;;;;5074365;28;20481;-77
2022/04/29 01:59:32;;;;;;;9.57;7.70;;;7.70;88.40;;;;;;5075791;28;20496;-79
2022/04/29 02:02:00;;;;;;;13.77;8.93;;;7.70;88.10;;;;;;5075004;28;20481;-77
2022/04/29 02:04:26;;;;;;;12.30;8.90;;;7.80;87.30;;;;;;5078066;28;21288;-78
2022/04/29 02:06:53;;;;;;;11.33;9.93;;;7.80;88.10;;;;;;5073745;28;20481;-76
2022/04/29 02:09:21;;;;;;;11.17;9.77;;;7.70;87.30;;;;;;5072258;28;20488;-78
2022/04/29 02:14:37;;;;;;;13.20;9.30;;;7.70;86.70;;;;;;5067146;28;20503;-79
2022/04/29 02:17:06;;;;;;;10.00;8.67;;;7.80;86.50;;;;;;5078615;28;20755;-77
2022/04/29 02:19:33;;;;;;;10.90;9.10;;;7.70;87.10;;;;;;5075520;28;20480;-77
2022/04/29 02:22:02;;;;;;;12.77;11.10;;;7.60;88.20;;;;;;5082419;28;20531;-79
2022/04/29 02:24:31;;;;;;;17.20;9.20;;;7.60;88.30;;;;;;5080724;28;20485;-77
2022/04/29 02:27:00;;;;;;;14.80;8.40;;;7.60;88.60;;;;;;5070065;28;20567;-77
2022/04/29 02:29:28;;;;;;;10.87;9.63;;;7.60;88.20;;;;;;5067579;28;20479;-76
2022/04/29 02:31:58;;;;;;;10.50;8.60;;;7.60;87.40;;;;;;5077659;28;20568;-75
2022/04/29 02:34:26;;;;;;;10.67;9.30;;;7.60;88.00;;;;;;5076963;28;20484;-79
2022/04/29 02:36:54;;;;;;;9.33;8.37;;;7.60;88.00;;;;;;5073141;28;20482;-79
2022/04/29 02:39:21;;;;;;;9.47;8.50;;;7.60;87.90;;;;;;5075371;28;20481;-73
2022/04/29 02:41:50;;;;;;;13.13;8.90;;;7.50;87.60;;;;;;5073868;28;20954;-77
2022/04/29 02:44:17;;;;;;;9.63;8.63;;;7.50;87.80;;;;;;5078785;28;20468;-77
2022/04/29 02:49:27;;;;;;;9.97;8.97;;;7.40;87.10;;;;;;5066262;28;20468;-77
2022/04/29 02:51:55;;;;;;;12.43;9.50;;;7.40;87.70;;;;;;5072531;28;20481;-77
2022/04/29 02:54:22;;;;;;;9.90;8.90;;;7.40;87.50;;;;;;5069022;28;20538;-79
2022/04/29 02:56:50;;;;;;;9.23;8.20;;;7.40;87.50;;;;;;5066484;28;20484;-78
2022/04/29 02:59:17;;;;;;;10.60;9.00;;;7.40;87.80;;;;;;5068868;28;20513;-78
2022/04/29 03:01:45;;;;;;;11.23;9.37;;;7.20;89.20;;;;;;5078904;28;20570;-76
2022/04/29 03:04:13;;;;;;;12.47;9.10;;;7.00;90.50;;;;;;5077343;28;20495;-78
2022/04/29 03:06:41;;;;;;;11.43;10.00;;;7.00;90.00;;;;;;5071984;28;21168;-80
2022/04/29 03:09:07;;;;;;;13.80;9.17;;;7.10;89.40;;;;;;5072011;28;20817;-76
2022/04/29 03:11:34;;;;;;;9.17;8.27;;;7.10;88.60;;;;;;5071138;28;20812;-80
2022/04/29 03:14:02;;;;;;;9.20;8.30;;;7.10;88.40;;;;;;5071089;28;20494;-79
2022/04/29 03:16:28;;;;;;;9.50;8.50;;;7.10;88.20;;;;;;5072874;28;20481;-76
2022/04/29 03:18:55;;;;;;;7.87;7.10;;;7.00;88.00;;;;;;5067935;28;20857;-80
2022/04/29 03:21:23;;;;;;;11.27;8.30;;;7.00;88.40;;;;;;5070723;28;21005;-77
2022/04/29 03:23:52;;;;;;;9.10;8.17;;;7.00;88.60;;;;;;5070967;28;20912;-76
2022/04/29 03:26:19;;;;;;;12.27;8.70;;;7.00;88.70;;;;;;5069235;28;20484;-79
2022/04/29 03:28:47;;;;;;;9.20;8.33;;;7.00;88.40;;;;;;5065557;28;20489;-79
2022/04/29 03:31:14;;;;;;;9.07;8.10;;;7.00;88.60;;;;;;5064760;28;20944;-79
2022/04/29 03:33:41;;;;;;;10.70;9.70;;;6.90;88.60;;;;;;5070683;28;20486;-77
2022/04/29 03:36:08;;;;;;;8.40;7.57;;;7.00;88.30;;;;;;5068447;28;20481;-80
2022/04/29 03:38:35;;;;;;;10.63;8.40;;;7.00;88.00;;;;;;5066067;28;20484;-76
2022/04/29 03:41:04;;;;;;;8.97;7.93;;;6.90;87.90;;;;;;5065143;28;20492;-78
2022/04/29 03:43:32;;;;;;;9.03;7.70;;;6.80;87.40;;;;;;5067717;28;20559;-80
2022/04/29 03:45:59;;;;;;;11.63;8.80;;;6.80;88.30;;;;;;5055905;28;21460;-77
2022/04/29 03:48:26;;;;;;;9.13;8.23;;;6.80;87.80;;;;;;5078528;28;21021;-79
2022/04/29 03:50:53;;;;;;;10.60;7.57;;;6.80;88.10;;;;;;5065668;28;20472;-76
2022/04/29 03:53:23;;;;;;;9.60;8.10;;;6.80;88.50;;;;;;5075661;28;20478;-79
2022/04/29 03:55:50;;;;;;;9.60;7.70;;;6.70;87.80;;;;;;5069813;28;20497;-77
2022/04/29 03:58:18;;;;;;;9.50;8.60;;;6.70;88.00;;;;;;5068682;28;20486;-75
2022/04/29 04:00:46;;;;;;;9.70;8.33;;;6.60;88.10;;;;;;5067738;28;20489;-77
2022/04/29 04:03:13;;;;;;;8.23;7.20;;;6.60;88.30;;;;;;5054612;28;20607;-80
2022/04/29 04:06:49;;;;;;;10.33;8.27;;;6.60;88.40;;;;;;5082890;28;20473;-76
2022/04/29 04:08:27;;;;;;;8.87;7.97;;;6.50;88.50;;;;;;5056032;28;20715;-78
2022/04/29 04:10:54;;;;;;;9.37;7.70;;;6.50;88.10;;;;;;5070309;28;20477;-78
2022/04/29 04:13:22;;;;;;;9.30;8.00;;;6.50;87.70;;;;;;5065300;28;21003;-79
2022/04/29 04:15:49;;;;;;;11.20;8.93;;;6.50;88.20;;;;;;5061658;28;20498;-77
2022/04/29 04:18:16;;;;;;;13.87;8.80;;;6.50;87.70;;;;;;5079101;28;20581;-76
2022/04/29 04:20:42;;;;;;;9.13;8.30;;;6.50;88.10;;;;;;5072565;28;20798;-80
2022/04/29 04:23:10;;;;;;;13.90;8.10;;;6.50;88.10;;;;;;5065690;28;21850;-78
2022/04/29 04:25:37;;;;;;;10.27;8.87;;;6.50;88.70;;;;;;5069859;28;20488;-76
2022/04/29 04:28:04;;;;;;;8.73;7.90;;;6.50;88.00;;;;;;5069485;28;20499;-79
2022/04/29 04:30:32;;;;;;;10.27;8.00;;;6.50;88.40;;;;;;5061590;28;20501;-81
2022/04/29 04:32:59;;;;;;;10.23;8.50;;;6.50;88.30;;;;;;5066310;28;20487;-76
2022/04/29 04:35:25;;;;;;;11.33;8.13;;;6.50;87.80;;;;;;5064719;28;20487;-79
2022/04/29 04:37:54;;;;;;;8.93;7.50;;;6.40;88.40;;;;;;5073948;28;20481;-80
2022/04/29 04:40:21;;;;;;;12.03;9.20;;;6.30;88.60;;;;;;5065847;28;20473;-79
2022/04/29 04:42:48;;;;;;;8.63;7.77;;;6.40;88.70;;;;;;5064691;28;20485;-77
2022/04/29 04:45:15;;;;;;;9.53;8.53;;;6.30;89.20;;;;;;5070804;28;20492;-77
2022/04/29 04:47:43;;;;;;;11.47;8.13;;;6.40;89.10;;;;;;5071086;28;20543;-79
2022/04/29 04:50:13;;;;;;;7.97;7.17;;;6.40;89.20;;;;;;5067628;28;20481;-80
2022/04/29 04:52:44;;;;;;;11.50;8.30;;;6.40;89.10;;;;;;5067856;28;20569;-75
2022/04/29 04:55:12;;;;;;;12.33;8.80;;;6.50;89.30;;;;;;5065558;28;20594;-78
2022/04/29 04:57:39;;;;;;;8.47;7.57;;;6.50;90.00;;;;;;5073569;28;20479;-75
2022/04/29 05:00:07;;;;;;;16.30;9.57;;;6.40;90.50;;;;;;5077524;28;20488;-78
2022/04/29 05:02:34;;;;;;;9.70;8.67;;;6.40;90.70;;;;;;5075723;28;20485;-75
2022/04/29 05:05:02;;;;;;;7.50;6.63;;;6.50;90.90;;;;;;5078809;28;20487;-78
2022/04/29 05:07:29;;;;;;;16.20;9.20;;;6.50;90.80;;;;;;5077633;28;20471;-79
2022/04/29 05:09:56;;;;;;;9.60;7.50;;;6.60;90.70;;;;;;5074889;28;20473;-78
2022/04/29 05:12:23;;;;;;;8.90;8.10;;;6.70;90.50;;;;;;5082934;28;20483;-78
2022/04/29 05:14:50;;;;;;;8.67;7.87;;;6.80;90.30;;;;;;5077245;28;20485;-76
2022/04/29 05:17:17;;;;;;;9.80;8.80;;;6.90;90.30;;;;;;5076573;28;20972;-76
2022/04/29 05:19:45;;;;;;;9.87;8.83;;;7.00;90.40;;;;;;5084036;28;20818;-76
2022/04/29 05:22:13;;;;;;;9.70;8.70;;;7.00;90.50;;;;;;5072826;28;20507;-78
2022/04/29 05:24:40;;;;;;;9.10;8.17;;;7.10;90.60;;;;;;5088219;28;21017;-79
2022/04/29 05:27:08;;;;;;;10.93;8.73;;;7.20;90.50;;;;;;5078091;28;20484;-79
2022/04/29 05:29:35;;;;;;;15.90;10.07;;;7.30;90.70;;;;;;5080095;28;20562;-75
2022/04/29 05:32:03;;;;;;;10.70;9.37;;;7.40;91.00;;;;;;5080029;28;20492;-80
2022/04/29 05:34:29;;;;;;;8.87;7.97;;;7.40;91.20;;;;;;5069324;28;20477;-76
2022/04/29 05:36:56;;;;;;;11.63;9.33;;;7.50;91.50;;;;;;5075968;28;20481;-77
2022/04/29 05:42:17;;;;;;;13.70;11.83;;;7.60;91.70;;;;;;5080545;28;20518;-78
2022/04/29 05:44:44;;;;;;;16.23;11.30;;;7.70;92.20;;;;;;5071206;28;20477;-76
2022/04/29 05:47:11;;;;;;;15.30;11.80;;;7.80;92.30;;;;;;5073732;28;20484;-78
2022/04/29 05:49:38;;;;;;;14.47;11.57;;;7.80;92.30;;;;;;5068101;28;20497;-76
2022/04/29 05:52:06;;;;;;;14.80;12.50;;;7.90;92.80;;;;;;5071932;28;20923;-77
2022/04/29 05:54:35;;;;;;;16.37;13.00;;;8.10;92.70;;;;;;5071495;28;20488;-75
2022/04/29 05:57:04;;;;;;;14.87;12.87;;;8.20;92.90;;;;;;5070621;28;20484;-78
2022/04/29 05:59:31;;;;;;;18.87;12.70;;;8.30;93.10;;;;;;5078333;28;20469;-79
2022/04/29 06:01:58;;;;;;;19.80;14.10;;;8.50;93.60;;;;;;5081284;28;20476;-78
2022/04/29 06:04:25;;;;;;;16.93;13.23;;;8.60;93.40;;;;;;5073304;28;20485;-79
2022/04/29 06:06:52;;;;;;;15.53;13.00;;;8.80;93.80;;;;;;5081337;28;20464;-76
2022/04/29 06:09:19;;;;;;;18.00;12.83;;;9.00;94.10;;;;;;5077950;28;20483;-77
2022/04/29 06:11:47;;;;;;;13.80;12.20;;;9.10;94.20;;;;;;5062864;28;20540;-79
2022/04/29 06:14:14;;;;;;;18.07;14.77;;;9.30;94.10;;;;;;5068606;28;20487;-77
2022/04/29 06:16:41;;;;;;;16.03;14.13;;;9.50;94.10;;;;;;5079131;28;20481;-77
2022/04/29 06:19:07;;;;;;;17.60;12.97;;;9.70;93.90;;;;;;5069211;28;20489;-77
2022/04/29 06:21:34;;;;;;;20.43;15.00;;;9.90;93.90;;;;;;5078322;28;20470;-79
2022/04/29 06:24:01;;;;;;;15.33;12.90;;;10.00;93.40;;;;;;5071466;28;20490;-79
2022/04/29 06:26:28;;;;;;;18.43;14.43;;;10.20;93.30;;;;;;5071297;28;20474;-76
2022/04/29 06:28:56;;;;;;;16.90;14.83;;;10.30;93.60;;;;;;5079241;28;20529;-78
2022/04/29 06:31:23;;;;;;;16.93;14.57;;;10.50;93.60;;;;;;5071407;28;20471;-78
2022/04/29 06:33:50;;;;;;;18.10;14.70;;;10.70;93.60;;;;;;5070588;28;20862;-78
2022/04/29 06:36:19;;;;;;;17.40;15.13;;;10.90;93.60;;;;;;5067792;28;20486;-78
2022/04/29 06:38:46;;;;;;;20.10;16.10;;;11.10;93.80;;;;;;5073768;28;20857;-78
2022/04/29 06:41:13;;;;;;;19.93;15.83;;;11.20;93.60;;;;;;5070645;28;22317;-79
2022/04/29 06:43:40;;;;;;;29.83;17.30;;;11.40;93.80;;;;;;5072773;28;20549;-78
2022/04/29 06:46:09;;;;;;;18.53;15.17;;;11.60;93.20;;;;;;5073402;28;20493;-76
2022/04/29 06:48:35;;;;;;;17.60;15.00;;;11.80;92.90;;;;;;5072530;28;20576;-77
2022/04/29 06:51:04;;;;;;;16.17;13.83;;;12.00;92.90;;;;;;5072210;28;20503;-77
2022/04/29 06:53:31;;;;;;;18.47;15.73;;;12.20;93.20;;;;;;5069663;28;20854;-75
2022/04/29 06:55:58;;;;;;;20.50;15.27;;;12.40;92.90;;;;;;5071348;28;20489;-76
2022/04/29 06:58:24;;;;;;;22.17;15.90;;;12.50;92.90;;;;;;5073096;28;20857;-80
2022/04/29 07:00:51;;;;;;;17.00;14.50;;;12.70;92.50;;;;;;5070749;28;20832;-77
2022/04/29 07:03:19;;;;;;;18.60;15.20;;;12.90;92.60;;;;;;5073081;28;20487;-80
2022/04/29 07:05:47;;;;;;;17.20;14.70;;;13.00;92.40;;;;;;5065929;28;21020;-79
2022/04/29 07:08:15;;;;;;;16.43;14.73;;;13.10;92.30;;;;;;5071396;28;20572;-78
2022/04/29 07:10:42;;;;;;;17.63;15.10;;;13.20;92.10;;;;;;5079987;28;20546;-79
2022/04/29 07:13:10;;;;;;;21.03;14.87;;;13.40;92.10;;;;;;5066999;28;20474;-78
2022/04/29 07:15:40;;;;;;;17.17;14.80;;;13.50;91.90;;;;;;5065770;28;20490;-80
2022/04/29 07:18:07;;;;;;;18.37;16.07;;;13.70;91.90;;;;;;5068729;28;20569;-79
2022/04/29 07:20:35;;;;;;;19.47;15.73;;;13.80;91.80;;;;;;5066837;28;20479;-77
2022/04/29 07:23:03;;;;;;;21.50;16.87;;;14.00;91.90;;;;;;5065751;28;20476;-77
2022/04/29 07:25:30;;;;;;;16.23;14.53;;;14.20;91.80;;;;;;5057037;28;20484;-81
2022/04/29 07:27:57;;;;;;;19.07;16.40;;;14.30;91.10;;;;;;5066139;28;21036;-78
2022/04/29 07:30:24;;;;;;;24.50;16.80;;;14.40;91.00;;;;;;5064227;28;20477;-76
2022/04/29 07:32:50;;;;;;;20.13;14.90;;;14.50;90.50;;;;;;5067409;28;20496;-80
2022/04/29 07:43:47;;;;;;;20.10;15.77;;;14.90;90.30;;;;;;5024351;28;20522;-76
2022/04/29 07:46:14;;;;;;;23.93;16.17;;;14.90;90.30;;;;;;5047964;28;21252;-81
2022/04/29 07:48:41;;;;;;;27.40;16.17;;;15.00;90.90;;;;;;5068152;28;20475;-81
2022/04/29 07:51:07;;;;;;;22.90;14.67;;;15.10;90.40;;;;;;5069122;28;20482;-79
2022/04/29 07:53:36;;;;;;;15.67;13.83;;;15.20;90.10;;;;;;5068379;28;20556;-77
2022/04/29 07:56:03;;;;;;;20.30;16.20;;;15.50;89.50;;;;;;5066969;28;20477;-79
2022/04/29 07:58:29;;;;;;;17.60;14.13;;;15.60;89.30;;;;;;5068178;28;20479;-75
2022/04/29 08:00:57;;;;;;;21.83;14.67;;;15.90;89.90;;;;;;5068849;28;21136;-79
2022/04/29 08:03:24;;;;;;;15.73;14.03;;;16.20;88.70;;;;;;5068999;28;20522;-79
2022/04/29 08:05:51;;;;;;;19.10;14.73;;;16.50;88.30;;;;;;5066598;28;20479;-78
2022/04/29 08:08:17;;;;;;;20.67;15.20;;;16.80;89.00;;;;;;5069121;28;20486;-77
2022/04/29 08:10:46;;;;;;;17.03;14.77;;;17.10;86.50;;;;;;5062548;28;20528;-77
2022/04/29 08:13:13;;;;;;;14.83;13.27;;;17.30;87.30;;;;;;5073109;28;20477;-77
2022/04/29 08:15:43;;;;;;;25.63;15.17;;;17.60;87.00;;;;;;5055641;28;20485;-76
2022/04/29 08:18:10;;;;;;;16.07;13.87;;;17.90;86.10;;;;;;5064607;28;21060;-79
2022/04/29 08:20:39;;;;;;;17.70;14.83;;;18.20;85.70;;;;;;5069232;28;20473;-75
2022/04/29 08:23:06;;;;;;;16.23;14.03;;;18.50;86.50;;;;;;5069212;28;20835;-77
2022/04/29 08:25:33;;;;;;;18.40;14.10;;;18.70;84.90;;;;;;5057907;28;20476;-77
2022/04/29 08:28:02;;;;;;;16.10;13.20;;;19.00;84.80;;;;;;5067150;28;20529;-76
2022/04/29 08:30:30;;;;;;;17.60;13.17;;;19.30;84.40;;;;;;5065523;28;20728;-77
2022/04/29 08:32:59;;;;;;;18.90;14.20;;;19.50;83.10;;;;;;5069845;28;20454;-77
2022/04/29 08:35:26;;;;;;;16.03;13.27;;;19.80;83.30;;;;;;5063498;28;20890;-77
2022/04/29 08:37:54;;;;;;;15.10;13.47;;;20.00;82.70;;;;;;5066619;28;20537;-77
2022/04/29 08:40:21;;;;;;;14.87;13.40;;;20.10;81.50;;;;;;5068408;28;20483;-77
2022/04/29 08:42:48;;;;;;;15.90;12.60;;;20.30;80.20;;;;;;5063894;28;20482;-76
2022/04/29 08:45:18;;;;;;;13.23;12.00;;;20.50;80.30;;;;;;5065416;28;20699;-76
2022/04/29 08:47:47;;;;;;;13.90;12.50;;;20.60;77.60;;;;;;5057775;28;20803;-75
2022/04/29 08:50:16;;;;;;;15.40;13.03;;;20.70;79.00;;;;;;5069210;28;20473;-76
2022/04/29 08:52:44;;;;;;;14.73;12.33;;;20.70;77.40;;;;;;5066252;28;20474;-76
2022/04/29 09:00:44;;;;;;;12.53;11.30;;;20.70;79.50;;;;;;5068255;28;20538;-75
2022/04/29 09:03:13;;;;;;;10.97;9.73;;;20.60;75.30;;;;;;5062436;28;20532;-77
2022/04/29 09:05:40;;;;;;;11.73;10.63;;;20.60;73.90;;;;;;5062128;28;20924;-78
2022/04/29 09:08:14;;;;;;;11.00;9.90;;;20.70;74.30;;;;;;5067101;28;20481;-78
2022/04/29 09:10:53;;;;;;;13.43;10.60;;;20.80;74.70;;;;;;5039291;28;20477;-81
2022/04/29 09:13:27;;;;;;;14.27;11.00;;;20.80;73.00;;;;;;5063085;28;20931;-77
2022/04/29 09:15:58;;;;;;;12.40;10.63;;;20.80;73.80;;;;;;5070286;28;20488;-77
2022/04/29 09:18:37;;;;;;;13.60;10.80;;;20.80;74.60;;;;;;5067603;28;20779;-78
2022/04/29 09:21:07;;;;;;;10.43;9.53;;;21.00;76.10;;;;;;5067454;28;20479;-75
2022/04/29 09:23:35;;;;;;;10.13;8.43;;;21.10;75.20;;;;;;5064398;28;20482;-78
2022/04/29 09:26:05;;;;;;;11.67;8.30;;;21.20;70.70;;;;;;5066557;28;20485;-80
2022/04/29 09:28:37;;;;;;;10.47;9.10;;;21.20;70.10;;;;;;5064006;28;20481;-78
2022/04/29 09:31:06;;;;;;;8.63;7.20;;;21.30;71.30;;;;;;5068582;28;20560;-79
2022/04/29 09:33:35;;;;;;;9.40;7.73;;;21.40;71.60;;;;;;5064632;28;20474;-76
2022/04/29 09:36:02;;;;;;;8.77;7.87;;;21.40;68.80;;;;;;5066133;28;20473;-76
2022/04/29 09:41:24;;;;;;;9.33;8.20;;;21.40;67.10;;;;;;5053962;28;21009;-75
2022/04/29 09:43:56;;;;;;;8.30;7.37;;;21.50;69.10;;;;;;5066197;28;20479;-75
2022/04/29 09:46:28;;;;;;;6.97;5.80;;;21.60;67.40;;;;;;5067212;28;20483;-78
2022/04/29 09:49:00;;;;;;;7.30;6.07;;;21.80;68.90;;;;;;5065966;28;20480;-79
2022/04/29 09:51:46;;;;;;;5.27;4.77;;;21.90;61.30;;;;;;5065285;28;21214;-77
2022/04/29 09:54:17;;;;;;;5.23;4.73;;;22.10;61.80;;;;;;5068762;28;20634;-80
2022/04/29 09:56:44;;;;;;;6.53;5.60;;;22.40;61.00;;;;;;5055545;28;20837;-75
2022/04/29 09:59:12;;;;;;;5.70;5.20;;;22.60;61.50;;;;;;5073583;28;20467;-76
2022/04/29 10:01:42;;;;;;;6.77;6.07;;;22.80;59.10;;;;;;5071316;28;20492;-80
2022/04/29 10:04:10;;;;;;;5.97;5.40;;;22.90;60.00;;;;;;5069812;28;20473;-78
2022/04/29 10:06:39;;;;;;;5.80;5.27;;;22.90;55.60;;;;;;5068235;28;20484;-81
2022/04/29 10:09:11;;;;;;;5.17;4.77;;;22.40;52.70;;;;;;5070069;28;20483;-79
2022/04/29 10:11:39;;;;;;;5.47;5.00;;;22.30;57.70;;;;;;5069351;28;20489;-77
2022/04/29 10:14:09;;;;;;;6.67;5.73;;;22.30;57.60;;;;;;5055614;28;20480;-84
2022/04/29 10:16:36;;;;;;;5.47;5.07;;;22.10;53.30;;;;;;5069418;28;21067;-76
2022/04/29 10:21:51;;;;;;;7.27;5.20;;;21.90;53.70;;;;;;5060937;28;20480;-78
2022/04/29 10:24:18;;;;;;;5.63;5.10;;;21.90;57.00;;;;;;5070599;28;20495;-77
2022/04/29 10:26:49;;;;;;;5.50;5.00;;;21.80;56.50;;;;;;5072216;28;20474;-79
2022/04/29 10:29:15;;;;;;;5.50;5.00;;;21.90;58.80;;;;;;5056776;28;20576;-82
2022/04/29 10:31:43;;;;;;;6.23;4.83;;;21.70;55.10;;;;;;5069513;28;20551;-76
2022/04/29 10:34:31;;;;;;;5.63;4.57;;;21.60;53.50;;;;;;5071993;28;21075;-79
2022/04/29 10:36:59;;;;;;;7.13;5.03;;;21.70;57.70;;;;;;5069676;28;20455;-79
2022/04/29 10:39:26;;;;;;;9.30;5.00;;;21.80;55.80;;;;;;5070690;28;20477;-78
2022/04/29 10:42:01;;;;;;;7.23;4.30;;;21.90;59.30;;;;;;5068744;28;20483;-76
2022/04/29 10:44:28;;;;;;;5.17;4.77;;;22.10;59.50;;;;;;5068929;28;20481;-78
2022/04/29 10:46:55;;;;;;;5.07;4.67;;;22.20;56.20;;;;;;5070523;28;20485;-79
2022/04/29 10:49:25;;;;;;;6.07;5.57;;;22.10;55.50;;;;;;5067900;28;21078;-78
2022/04/29 10:51:55;;;;;;;5.73;4.57;;;22.20;59.10;;;;;;5067999;28;20485;-80
2022/04/29 10:54:45;;;;;;;7.00;4.73;;;22.40;59.00;;;;;;5065751;28;21034;-78
2022/04/29 10:57:14;;;;;;;4.93;4.50;;;22.40;56.40;;;;;;5069293;28;20480;-77
2022/04/29 10:59:53;;;;;;;5.60;5.10;;;22.50;56.20;;;;;;5065810;28;20980;-79
2022/04/29 11:02:28;;;;;;;4.87;4.47;;;22.40;54.20;;;;;;5057333;28;20477;-79
2022/04/29 11:04:58;;;;;;;5.50;4.70;;;23.70;56.90;;;;;;5051553;28;20952;-80
2022/04/29 11:07:42;;;;;;;5.83;5.33;;;22.30;57.20;;;;;;5068786;28;20465;-79
2022/04/29 11:10:15;;;;;;;5.60;5.10;;;22.40;55.60;;;;;;5070500;28;20947;-79
2022/04/29 11:12:43;;;;;;;5.73;4.70;;;22.40;54.90;;;;;;5069629;28;20530;-78
2022/04/29 11:15:15;;;;;;;4.70;4.17;;;22.60;55.80;;;;;;5061529;28;20470;-80
2022/04/29 11:17:43;;;;;;;5.13;4.63;;;22.50;53.60;;;;;;5069664;28;20445;-81
2022/04/29 11:20:21;;;;;;;5.77;5.23;;;22.60;56.10;;;;;;5066495;28;20486;-78
2022/04/29 11:25:50;;;;;;;5.13;4.73;;;22.50;54.70;;;;;;5066344;28;21063;-79
2022/04/29 11:28:18;;;;;;;7.67;5.13;;;22.40;52.30;;;;;;5068258;28;20464;-76
2022/04/29 11:30:46;;;;;;;4.90;4.50;;;22.20;53.50;;;;;;5066660;28;20495;-81
2022/04/29 11:33:13;;;;;;;4.53;4.23;;;22.20;54.60;;;;;;5065459;28;20448;-77
2022/04/29 11:35:40;;;;;;;4.97;4.57;;;22.40;56.30;;;;;;5066001;28;20477;-75
2022/04/29 11:38:10;;;;;;;4.80;4.40;;;22.40;56.80;;;;;;5069791;28;20510;-80
2022/04/29 11:40:41;;;;;;;4.83;4.43;;;22.50;57.20;;;;;;5068697;28;20479;-80
2022/04/29 11:43:10;;;;;;;6.40;4.20;;;22.60;56.20;;;;;;5070825;28;20515;-76
2022/04/29 11:45:38;;;;;;;5.23;4.80;;;22.60;56.50;;;;;;5072569;28;20761;-77
2022/04/29 11:48:06;;;;;;;8.33;5.60;;;22.50;56.60;;;;;;5078825;28;20482;-78
2022/04/29 11:50:35;;;;;;;6.47;4.67;;;22.50;53.80;;;;;;5072735;28;20486;-79
2022/04/29 11:53:12;;;;;;;6.30;4.20;;;22.30;54.60;;;;;;5069533;28;20484;-79
2022/04/29 11:55:40;;;;;;;6.53;5.57;;;22.30;54.60;;;;;;5064809;28;20457;-76
2022/04/29 11:58:08;;;;;;;6.83;5.07;;;22.00;53.30;;;;;;5061514;28;20476;-79
2022/04/29 12:00:35;;;;;;;5.07;4.57;;;22.00;56.00;;;;;;5072201;28;20476;-81
2022/04/29 12:03:04;;;;;;;5.30;4.90;;;21.80;55.50;;;;;;5064735;28;20480;-78
2022/04/29 12:05:32;;;;;;;6.90;4.90;;;21.80;53.60;;;;;;5060807;28;20484;-78
2022/04/29 12:08:01;;;;;;;6.80;5.47;;;21.90;57.30;;;;;;5073224;28;20575;-79
2022/04/29 12:10:31;;;;;;;4.70;4.00;;;22.10;57.90;;;;;;5069739;28;20865;-78
2022/04/29 12:12:59;;;;;;;6.60;5.50;;;22.20;52.00;;;;;;5069504;28;20487;-84
2022/04/29 12:15:28;;;;;;;7.90;7.10;;;22.40;57.10;;;;;;5066557;28;20467;-79
2022/04/29 12:17:59;;;;;;;8.30;4.60;;;22.60;55.90;;;;;;5071459;28;20594;-79
2022/04/29 12:20:27;;;;;;;6.10;5.60;;;22.50;51.90;;;;;;5065314;28;20491;-78
2022/04/29 12:22:54;;;;;;;5.50;5.10;;;22.60;58.90;;;;;;5061630;28;20480;-81
2022/04/29 12:25:24;;;;;;;5.30;3.87;;;22.70;53.90;;;;;;5057039;28;20511;-78
2022/04/29 12:28:12;;;;;;;5.40;5.00;;;23.00;56.20;;;;;;5069148;28;20498;-78
2022/04/29 12:36:11;;;;;;;4.63;3.93;;;23.30;53.80;;;;;;5067464;28;20515;-80
2022/04/29 12:38:40;;;;;;;5.27;4.90;;;23.50;55.90;;;;;;5064908;28;20456;-84
2022/04/29 12:41:24;;;;;;;5.03;4.37;;;23.10;52.60;;;;;;5071120;28;20475;-81
2022/04/29 12:43:52;;;;;;;5.00;4.40;;;22.70;50.10;;;;;;5069257;28;20597;-79
2022/04/29 12:46:22;;;;;;;4.73;4.43;;;22.40;49.90;;;;;;5064307;28;20491;-81
2022/04/29 12:48:52;;;;;;;5.50;5.00;;;22.30;51.70;;;;;;5069163;28;20520;-84
2022/04/29 12:51:25;;;;;;;6.97;6.27;;;22.40;53.50;;;;;;5066760;28;21002;-81
2022/04/29 12:53:52;;;;;;;5.17;4.67;;;22.50;54.90;;;;;;5060022;28;20476;-77
2022/04/29 12:56:26;;;;;;;4.70;4.40;;;22.50;55.30;;;;;;5067828;28;20476;-82
2022/04/29 12:58:54;;;;;;;4.33;4.03;;;22.30;49.80;;;;;;5070314;28;20636;-75
2022/04/29 13:01:21;;;;;;;9.03;5.90;;;22.20;51.40;;;;;;5065930;28;20491;-79
2022/04/29 13:03:52;;;;;;;4.70;4.30;;;22.20;52.20;;;;;;5066324;28;20480;-77
2022/04/29 13:06:20;;;;;;;8.20;4.60;;;22.40;52.90;;;;;;5066566;28;20633;-78
2022/04/29 13:08:52;;;;;;;7.60;5.00;;;22.40;51.50;;;;;;5063720;28;20559;-77
2022/04/29 13:11:20;;;;;;;6.10;5.57;;;22.50;52.70;;;;;;5065712;28;20486;-78
2022/04/29 13:13:47;;;;;;;5.07;4.67;;;22.60;52.70;;;;;;5067680;28;20479;-77
2022/04/29 13:16:15;;;;;;;4.33;4.00;;;22.60;53.40;;;;;;5067620;28;20475;-80
2022/04/29 13:18:43;;;;;;;4.23;3.93;;;22.40;51.30;;;;;;5064285;28;20482;-82
2022/04/29 13:21:10;;;;;;;5.27;4.67;;;22.20;54.70;;;;;;5067874;28;20496;-80
2022/04/29 13:23:38;;;;;;;4.63;4.33;;;22.40;54.70;;;;;;5067113;28;20952;-79
2022/04/29 13:26:06;;;;;;;8.17;4.70;;;22.50;55.30;;;;;;5067687;28;20481;-74